Latest Weather Observations for Bellambi

IDN60901

Issued at 6:05 pm EDT Saturday 25 October 2014 (issued every 10 minutes, with the page automatically refreshed every 10 minutes)

About weather observations | Map of Sydney area stations | Latest observations for Sydney area | Other Formats
Station Details ID: 068228 Name: BELLAMBI AWS Lat: -34.37 Lon: 150.93 Height: 10.0 m
Data from the previous 72 hours. | See also: Recent months at Bellambi
Date/Time
EDT
Tmp

°C
App
Tmp
°C
Dew
Point
°C
Rel
Hum
%
Delta-T

°C
Wind Press
QNH
hPa
Press
MSL
hPa
Rain
since
9 am
mm
Dir
 
Spd
km/h
Gust
km/h
Spd
kts
Gust
kts
25/06:00pm 19.0 17.8 17.1 89 1.2 SSW 19 24 10 13 - - 0.0
25/05:30pm 19.0 17.3 17.1 89 1.2 S 22 26 12 14 - - 0.0
25/05:00pm 19.3 17.6 17.3 88 1.2 S 22 24 12 13 - - 0.0
25/04:30pm 19.4 17.7 17.2 87 1.3 S 22 30 12 16 - - 0.0
25/04:00pm 20.0 18.9 17.4 85 1.6 S 19 24 10 13 - - 0.0
25/03:30pm 20.4 20.5 17.4 83 1.8 S 13 15 7 8 - - 0.0
25/03:21pm 20.9 21.2 17.9 83 1.9 S 13 17 7 9 - - 0.0
25/03:00pm 21.1 21.1 18.1 83 1.9 S 15 19 8 10 - - 0.0
25/02:30pm 20.8 19.9 17.8 83 1.9 S 19 24 10 13 - - 0.0
25/02:00pm 20.5 19.0 17.7 84 1.7 S 22 28 12 15 - - 0.0
25/01:30pm 20.7 19.3 17.9 84 1.7 S 22 30 12 16 - - 0.0
25/01:00pm 21.2 20.8 18.0 82 2.0 S 17 19 9 10 - - 0.0
25/12:30pm 21.3 20.0 17.3 78 2.5 S 20 24 11 13 - - 0.0
25/12:00pm 21.6 22.6 17.8 79 2.4 SE 9 11 5 6 - - 0.0
25/11:30am 22.6 23.4 19.0 80 2.3 ESE 13 15 7 8 - - 0.0
25/11:00am 22.2 23.4 18.2 78 2.5 ENE 9 11 5 6 - - 0.0
25/10:30am 21.3 22.7 17.9 81 2.1 N 7 9 4 5 - - 0.0
25/10:00am 21.6 23.0 17.8 79 2.4 ENE 7 9 4 5 - - 0.0
25/09:30am 20.9 22.9 17.9 83 1.9 NNE 4 7 2 4 - - 0.0
25/09:00am 19.8 21.5 17.2 85 1.6 N 4 9 2 5 - - 0.4
25/08:30am 19.3 21.7 17.1 87 1.3 CALM 0 6 0 3 - - 0.4
25/08:00am 19.5 22.1 17.5 88 1.2 CALM 0 0 0 0 - - 0.4
25/07:30am 18.2 19.3 16.5 90 1.0 NNW 6 7 3 4 - - 0.4
25/07:00am 18.2 20.5 16.7 91 0.9 CALM 0 2 0 1 - - 0.4
25/06:30am 17.6 17.9 16.1 91 0.9 W 9 9 5 5 - - 0.4
25/06:00am 17.7 17.7 16.2 91 0.9 WSW 11 15 6 8 - - 0.4
25/05:30am 18.0 19.1 16.5 91 0.9 W 6 7 3 4 - - 0.4
25/05:28am 18.1 19.2 16.6 91 0.9 W 6 7 3 4 - - 0.4
25/05:00am 18.4 20.7 16.7 90 1.0 CALM 0 0 0 0 - - 0.4
25/04:30am 18.8 21.2 17.1 90 1.0 CALM 0 0 0 0 - - 0.4
25/04:00am 18.9 20.6 17.2 90 1.0 N 4 7 2 4 - - 0.4
25/03:30am 19.0 21.5 17.3 90 1.0 CALM 0 0 0 0 - - 0.4
25/03:00am 19.0 21.5 17.3 90 1.0 CALM 0 0 0 0 - - 0.4
25/02:30am 19.1 21.7 17.4 90 1.0 CALM 0 0 0 0 - - 0.4
25/02:00am 19.4 22.0 17.5 89 1.2 CALM 0 0 0 0 - - 0.4
25/01:30am 19.6 22.3 17.7 89 1.2 CALM 0 6 0 3 - - 0.4
25/01:00am 19.5 21.8 17.8 90 1.0 N 2 9 1 5 - - 0.4
25/12:30am 19.3 20.2 17.6 90 1.0 N 9 9 5 5 - - 0.4
25/12:21am 19.2 20.5 17.5 90 1.0 N 7 9 4 5 - - 0.4
25/12:00am 19.2 20.6 17.3 89 1.2 N 6 11 3 6 - - 0.4
 
Date/Time
EDT
Tmp

°C
App
Tmp
°C
Dew
Point
°C
Rel
Hum
%
Delta-T

°C
Wind Press
QNH
hPa
Press
MSL
hPa
Rain
since
9 am
mm
Dir
 
Spd
km/h
Gust
km/h
Spd
kts
Gust
kts
24/11:30pm 19.3 20.1 17.4 89 1.2 ENE 9 15 5 8 - - 0.4
24/11:00pm 19.4 19.5 17.5 89 1.2 S 13 17 7 9 - - 0.4
24/10:30pm 19.8 17.2 17.9 89 1.2 SSW 28 41 15 22 - - 0.4
24/10:18pm 19.8 17.3 18.1 90 1.1 SSW 28 39 15 21 - - 0.4
24/10:00pm 19.3 20.1 17.3 88 1.2 S 9 15 5 8 - - 0.4
24/09:30pm 19.5 19.3 17.5 88 1.2 E 15 20 8 11 - - 0.4
24/09:00pm 19.5 20.4 17.5 88 1.2 NE 9 13 5 7 - - 0.4
24/08:30pm 19.6 19.4 17.6 88 1.2 N 15 19 8 10 - - 0.4
24/08:00pm 19.6 19.4 17.6 88 1.2 N 15 20 8 11 - - 0.4
24/07:30pm 19.6 18.4 17.6 88 1.2 NNE 20 26 11 14 - - 0.4
24/07:00pm 19.6 19.7 17.4 87 1.3 N 13 17 7 9 - - 0.4
24/06:30pm 19.7 17.4 17.5 87 1.3 NE 26 32 14 17 - - 0.4
24/06:00pm 20.0 17.6 17.4 85 1.6 NE 26 32 14 17 - - 0.4
24/05:30pm 20.3 17.3 17.7 85 1.6 NNE 30 35 16 19 - - 0.4
24/05:00pm 20.1 17.4 17.5 85 1.6 NNE 28 35 15 19 - - 0.4
24/04:30pm 20.3 18.0 17.7 85 1.6 NNE 26 35 14 19 - - 0.4
24/04:00pm 20.4 15.7 17.8 85 1.6 NE 39 44 21 24 - - 0.4
24/03:30pm 20.6 16.3 17.8 84 1.7 NE 37 44 20 24 - - 0.4
24/03:00pm 20.7 17.3 17.7 83 1.8 NNE 32 39 17 21 - - 0.4
24/02:51pm 20.9 18.4 18.1 84 1.7 NNE 28 39 15 21 - - 0.4
24/02:30pm 20.4 19.9 17.8 85 1.6 N 17 22 9 12 - - 0.4
24/02:00pm 21.2 20.3 18.2 83 1.9 NNE 20 28 11 15 - - 0.4
24/01:53pm 21.3 20.6 18.3 83 1.9 NNE 19 24 10 13 - - 0.4
24/01:30pm 21.3 20.6 18.3 83 1.9 NNE 19 24 10 13 - - 0.4
24/01:00pm 21.9 21.4 19.1 84 1.8 NE 20 26 11 14 - - 0.4
24/12:30pm 21.4 19.7 18.2 82 2.0 NE 24 28 13 15 - - 0.4
24/12:00pm 21.1 19.9 17.5 80 2.2 ENE 20 24 11 13 - - 0.4
24/11:30am 21.9 22.3 18.1 79 2.4 NE 13 17 7 9 - - 0.4
24/11:00am 21.2 22.1 17.6 80 2.2 NE 9 13 5 7 - - 0.4
24/10:30am 19.7 18.0 16.3 81 2.0 NNE 20 24 11 13 - - 0.4
24/10:00am 20.3 17.9 15.3 73 3.0 N 22 32 12 17 - - 0.2
24/09:30am 20.2 19.0 16.0 77 2.5 NNW 17 26 9 14 - - 0.0
24/09:00am 20.4 17.5 16.0 76 2.6 NW 26 33 14 18 - - 0.0
24/08:30am 20.2 19.6 15.6 75 2.7 N 13 17 7 9 - - 0.0
24/08:00am 19.8 17.1 15.7 77 2.4 NW 24 28 13 15 - - 0.0
24/07:30am 19.1 17.5 16.0 82 1.8 N 19 24 10 13 - - 0.0
24/07:00am 18.7 17.5 16.1 85 1.5 N 17 20 9 11 - - 0.0
24/06:30am 18.2 16.3 15.8 86 1.4 NNW 20 24 11 13 - - 0.0
24/06:00am 18.3 18.7 16.3 88 1.2 N 9 13 5 7 - - 0.0
24/05:30am 17.8 17.5 15.4 86 1.4 SW 11 15 6 8 - - 0.0
24/05:00am 18.3 19.5 15.9 86 1.4 WNW 4 9 2 5 - - 0.0
24/04:30am 18.8 19.7 16.2 85 1.6 SSE 6 13 3 7 - - 0.0
24/04:00am 19.4 19.3 15.9 80 2.1 S 11 15 6 8 - - 0.0
24/03:30am 19.0 18.2 16.2 84 1.7 NW 15 22 8 12 - - 0.0
24/03:00am 18.7 20.3 17.0 90 1.0 N 4 7 2 4 - - 0.0
24/02:30am 18.5 18.7 16.8 90 1.0 NW 11 13 6 7 - - 0.0
24/02:00am 18.8 17.5 17.3 91 0.9 N 20 24 11 13 - - 0.0
24/01:30am 18.8 18.8 17.1 90 1.0 NNE 13 19 7 10 - - 0.0
24/01:20am 18.7 20.0 17.0 90 1.0 WSW 6 11 3 6 - - 0.0
24/01:00am 18.6 19.2 16.9 90 1.0 SW 9 13 5 7 - - 0.0
24/12:30am 18.7 18.2 17.0 90 1.0 SSW 15 20 8 11 - - 0.0
24/12:15am 18.7 18.2 17.0 90 1.0 SSW 15 20 8 11 - - 0.0
24/12:00am 18.4 18.9 16.6 89 1.1 SW 9 13 5 7 - - 0.0
 
Date/Time
EDT
Tmp

°C
App
Tmp
°C
Dew
Point
°C
Rel
Hum
%
Delta-T

°C
Wind Press
QNH
hPa
Press
MSL
hPa
Rain
since
9 am
mm
Dir
 
Spd
km/h
Gust
km/h
Spd
kts
Gust
kts
23/11:30pm 18.3 18.0 16.5 89 1.1 SW 13 15 7 8 - - 0.0
23/11:00pm 18.5 19.4 16.7 89 1.1 WSW 7 11 4 6 - - 0.0
23/10:30pm 18.6 20.9 16.8 89 1.1 CALM 0 0 0 0 - - 0.0
23/10:00pm 18.2 18.6 16.2 88 1.2 SW 9 13 5 7 - - 0.0
23/09:30pm 18.5 20.7 16.5 88 1.2 CALM 0 0 0 0 - - 0.0
23/09:00pm 18.5 20.6 16.3 87 1.3 CALM 0 0 0 0 - - 0.0
23/08:30pm 18.9 21.1 16.5 86 1.4 CALM 0 0 0 0 - - 0.0
23/08:00pm 19.0 20.9 16.6 86 1.4 SE 2 7 1 4 - - 0.0
23/07:30pm 19.3 21.1 16.5 84 1.7 SE 2 7 1 4 - - 0.0
23/07:00pm 19.9 22.2 16.7 82 1.9 CALM 0 0 0 0 - - 0.0
23/06:30pm 20.2 22.5 16.8 81 2.1 CALM 0 0 0 0 - - 0.0
23/06:00pm 20.5 22.7 16.5 78 2.4 CALM 0 0 0 0 - - 0.0
23/05:30pm 20.6 22.5 16.6 78 2.4 ESE 2 6 1 3 - - 0.0
23/05:00pm 21.1 22.7 16.9 77 2.6 ESE 4 6 2 3 - - 0.0
23/04:30pm 21.2 22.3 16.6 75 2.8 ESE 6 6 3 3 - - 0.0
23/04:00pm 21.6 22.4 17.4 77 2.6 ESE 9 11 5 6 - - 0.0
23/03:30pm 22.0 22.6 16.7 72 3.2 SSE 9 11 5 6 - - 0.0
23/03:00pm 22.8 23.5 16.1 66 4.1 S 7 9 4 5 - - 0.0
23/02:30pm 22.1 24.0 16.8 72 3.2 SSE 2 9 1 5 - - 0.0
23/02:00pm 21.6 23.1 18.0 80 2.2 SSE 7 9 4 5 - - 0.0
23/01:30pm 20.7 21.7 16.9 79 2.3 ESE 7 9 4 5 - - 0.0
23/01:00pm 21.2 22.4 17.4 79 2.3 SSE 7 9 4 5 - - 0.0
23/12:30pm 20.9 21.7 17.3 80 2.2 S 9 13 5 7 - - 0.0
23/12:00pm 20.6 20.5 17.0 80 2.2 SSE 13 17 7 9 - - 0.0
23/11:30am 20.1 20.1 16.3 79 2.3 SSE 11 15 6 8 - - 0.0
23/11:00am 20.3 20.4 16.5 79 2.3 SE 11 11 6 6 - - 0.0
23/10:30am 20.7 22.1 15.3 71 3.2 E 2 6 1 3 - - 0.0
23/10:00am 20.5 21.6 15.5 73 3.0 S 4 9 2 5 - - 0.0
23/09:30am 19.9 20.4 15.5 76 2.6 SSW 7 9 4 5 - - 0.0
23/09:00am 18.8 19.6 14.9 78 2.3 S 4 7 2 4 - - 0.0
23/08:30am 18.6 18.9 14.9 79 2.2 S 7 11 4 6 - - 0.0
23/08:00am 18.6 18.9 14.5 77 2.4 S 6 7 3 4 - - 0.0
23/07:30am 18.8 20.4 14.9 78 2.3 CALM 0 0 0 0 - - 0.0
23/07:00am 16.9 16.7 13.6 81 1.9 SW 7 9 4 5 - - 0.0
23/06:30am 16.8 17.9 13.5 81 1.9 CALM 0 4 0 2 - - 0.0
23/06:00am 17.3 16.9 14.0 81 1.9 N 9 11 5 6 - - 0.0
23/05:30am 17.1 16.0 13.2 78 2.2 NNE 11 13 6 7 - - 0.0
23/05:00am 16.7 16.4 13.2 80 2.0 NNE 7 9 4 5 - - 0.0
23/04:30am 16.8 16.3 12.7 77 2.3 N 7 11 4 6 - - 0.0
23/04:00am 16.9 15.3 12.8 77 2.3 NNE 13 17 7 9 - - 0.0
23/03:30am 16.6 16.1 12.6 77 2.2 NW 7 11 4 6 - - 0.0
23/03:00am 16.5 16.1 12.5 77 2.2 WNW 6 9 3 5 - - 0.0
23/02:30am 16.3 16.4 12.7 79 2.0 NNW 4 7 2 4 - - 0.0
23/02:00am 15.6 15.9 12.2 80 1.9 NNW 2 9 1 5 - - 0.0
23/01:30am 15.2 14.5 12.0 81 1.7 NNW 7 11 4 6 - - 0.0
23/01:00am 15.1 14.4 11.5 79 1.9 WNW 6 11 3 6 - - 0.0
23/12:30am 15.6 14.5 12.0 79 2.0 NW 9 13 5 7 - - 0.0
23/12:00am 16.4 15.8 12.2 76 2.3 NW 7 11 4 6 - - 0.0
 
Date/Time
EDT
Tmp

°C
App
Tmp
°C
Dew
Point
°C
Rel
Hum
%
Delta-T

°C
Wind Press
QNH
hPa
Press
MSL
hPa
Rain
since
9 am
mm
Dir
 
Spd
km/h
Gust
km/h
Spd
kts
Gust
kts
22/11:30pm 17.5 15.7 13.4 77 2.3 N 15 19 8 10 - - 0.0
22/11:00pm 17.0 15.9 13.1 78 2.2 N 11 13 6 7 - - 0.0
22/10:30pm 16.6 16.1 12.6 77 2.2 NW 7 9 4 5 - - 0.0
22/10:00pm 17.0 16.3 13.1 78 2.2 NNW 9 13 5 7 - - 0.0
22/09:30pm 16.9 16.1 12.8 77 2.3 NW 9 11 5 6 - - 0.0
22/09:00pm 17.9 16.3 14.0 78 2.2 N 15 19 8 10 - - 0.0
22/08:30pm 17.9 15.5 13.8 77 2.3 NNE 19 24 10 13 - - 0.0
22/08:00pm 17.9 14.7 14.2 79 2.1 NNE 24 30 13 16 - - 0.0
22/07:30pm 18.0 13.6 14.1 78 2.2 NNE 30 35 16 19 - - 0.0
22/07:00pm 18.1 12.8 14.2 78 2.2 NNE 35 41 19 22 - - 0.0
22/06:30pm 18.2 12.0 13.7 75 2.6 NE 39 46 21 25 - - 0.0

Latest Capital City Observations: Canberra | Sydney | Melbourne | Brisbane | Adelaide | Perth | Hobart | Darwin

Other Formats:

Comma delimited format used in spreadsheet applications
http://www.bom.gov.au/fwo/IDN60901/IDN60901.94749.axf

JavaScript Object Notation format (JSON) in row-major order
http://www.bom.gov.au/fwo/IDN60901/IDN60901.94749.json